Bookmark and Share
Track history (hours):
 

Seaexpress

Last reported at 2013-Jan-06 13:32 UTC. Time now 2014-Apr-23 19:17 UTC.
Position N 37°36' E 025°49'.
Warning: this ship's position is years out of date!

Length 180 m; draft 7.3 m.

Type: Tanker. MMSI: 548773000.

NotesDate/timePositionNaut miles runAvg speedWind from/ knotsBaromVisibWave heightAir tempDewpointWater temp
2013-Jan-06 13:32N 37°36' E 025°49'9 9.4
2013-Jan-06 12:33N 37°27' E 025°52'6 9.5
2013-Jan-06 11:56N 37°22' E 025°56'1510.9
2013-Jan-06 10:33N 37°10' E 026°06'1211.9
2013-Jan-06 09:32N 36°59' E 026°12'1312.7
2013-Jan-06 08:31N 36°49' E 026°23'1212.9
2013-Jan-06 07:33N 36°40' E 026°33'1313.2
2013-Jan-06 06:33N 36°30' E 026°45'813.8
2013-Jan-06 05:57N 36°24' E 026°52'  
2013-Jan-01 01:33N 36°16' E 027°00'2411.8
2012-Dec-31 23:33N 36°33' E 026°41'1211.6
2012-Dec-31 22:33N 36°42' E 026°31'1211.5
2012-Dec-31 21:33N 36°50' E 026°21'1211.9
2012-Dec-31 20:33N 36°59' E 026°12'1211.7
2012-Dec-31 19:33N 37°09' E 026°05'1312.8
2012-Dec-31 18:33N 37°20' E 025°57'1312.8
2012-Dec-31 17:33N 37°32' E 025°49'1312.6
2012-Dec-31 16:33N 37°44' E 025°44'264 8.5
2012-Dec-30 09:33N 41°15' E 029°08'7 6.9
2012-Dec-30 08:33N 41°22' E 029°08'7 7.1
2012-Dec-30 07:33N 41°28' E 029°14'  

Dump ship's entire track history

sailing weather and tide predictions

Seaexpress — DYTF — position and weather